• Join FlightAware (Why Join?)
  • Login
  • US Flag 
03:34AM EDT


 

Airport Tracker/Info


-or-


 

Live Flight TrackerFlight Track Log ✈ GJS3629 ✈ 04-Jul-2013 ✈ KDEN - KSTL

Flight Track Log - Related Links

Times and Time Zones

All times are in EDT time to prevent confusion due to time zone crossing. See the GJS3629 flight status page for this flight to view local times or setup timezone preferences in your user account.

Time Position Orientation Groundspeed Altitude Reporting Facility
EDT Latitude Longitude Course Direction KTS MPH feet Rate Location/Type
12:21PM 39.8667 -104.5833 108° East 192 221 7,100  Level Denver TRACON
12:22PM 39.8500 -104.5000 105° East 246 283 8,900 1,620 Climbing Denver TRACON
12:23PM 39.8300 -104.4514 118° Southeast 249 287 9,700 1,380 Climbing Denver Center
12:24PM 39.7735 -104.0943 101° East  Level FlightAware Approximate
12:24PM 39.8097 -104.3458 104° East 301 346 11,200  Level Denver Center
12:25PM 39.7667 -103.9498 90° East  Level FlightAware Approximate
12:25PM 39.7956 -104.2144 98° East 341 392 12,700  Level Denver Center
12:26PM 39.7476 -103.8070 108° East  Level FlightAware Approximate
12:26PM 39.7803 -104.0828 99° East 364 419 14,800  Level Denver Center
12:27PM 39.7656 -103.9411 98° East 369 425 17,000 1,860 Climbing Denver Center
12:28PM 39.7481 -103.8053 99° East 380 437 18,700 1,500 Climbing Denver Center
12:29PM 39.7339 -103.6672 98° East 381 438 20,200 1,620 Climbing Denver Center
12:30PM 39.7239 -103.5261 95° East 389 448 22,100 1,440 Climbing Denver Center
12:31PM 39.7117 -103.3833 96° East 397 457 23,300 1,200 Climbing Denver Center
12:32PM 39.7008 -103.2350 95° East 410 472 24,700 1,500 Climbing Denver Center
12:33PM 39.6864 -103.0553 96° East 417 480 26,400 1,380 Climbing Denver Center
12:34PM 39.6731 -102.9036 96° East 423 487 27,600 1,020 Climbing Denver Center
12:35PM 39.6589 -102.7494 97° East 430 495 28,600 900 Climbing Denver Center
12:36PM 39.6464 -102.6056 96° East 438 504 29,500 960 Climbing Denver Center
12:37PM 39.6306 -102.4275 97° East 445 512 30,700 1,080 Climbing Denver Center
12:38PM 39.6150 -102.2486 96° East 448 516 31,800 960 Climbing Denver Center
12:39PM 39.6022 -102.0953 96° East 449 517 32,700 960 Climbing Denver Center
12:40PM 39.5861 -101.9172 97° East 446 513 33,900 960 Climbing Denver Center
12:41PM 39.5739 -101.7656 96° East 443 510 34,800 840 Climbing Denver Center
12:42PM 39.5594 -101.5892 96° East 442 509 35,700 780 Climbing Denver Center
12:43PM 39.5472 -101.4378 96° East 443 510 36,500 780 Climbing Denver Center
12:44PM 39.5233 -101.2625 100° East 444 511 37,400 720 Climbing Denver Center
12:45PM 39.5017 -101.1147 101° East 440 506 38,100 720 Climbing Denver Center
12:46PM 39.4764 -100.9453 101° East 433 498 39,000 420 Climbing Denver Center
12:48PM 39.4547 -100.8019 101° East 428 493 39,000  Level Denver Center
12:49PM 39.4283 -100.6308 101° East 433 498 39,000  Level Denver Center
12:50PM 39.4056 -100.4811 101° East 440 506 39,000  Level Denver Center
12:51PM 39.3753 -100.2856 101° East 438 504 39,000  Level Denver Center
12:52PM 39.3519 -100.1381 102° East 440 506 39,000  Level Denver Center
12:53PM 39.3242 -99.9658 102° East 440 506 39,000  Level Denver Center
12:54PM 39.3014 -99.8214 101° East 432 497 39,000  Level Denver Center
12:55PM 39.2736 -99.6519 102° East 431 496 39,000  Level Denver Center
12:56PM 39.2503 -99.5056 102° East 434 499 39,000  Level Denver Center
12:57PM 39.2228 -99.3369 102° East 433 498 39,000  Level Denver Center
12:58PM 39.1981 -99.1928 102° East 432 497 39,000  Level Denver Center
12:59PM 39.1703 -99.0261 102° East 432 497 39,000  Level Denver Center
01:00PM 39.1472 -98.8875 102° East 429 494 39,000  Level Denver Center
01:01PM 39.1208 -98.7356 103° East 434 499 39,000  Level Denver Center
01:02PM 39.0900 -98.5542 102° East 433 498 39,000  Level Denver Center
01:04PM 39.0522 -98.3325 102° East 438 504 39,000  Level Kansas City Center
01:05PM 39.0250 -98.1789 103° East 439 505 39,000  Level Kansas City Center
01:06PM 38.9978 -98.0247 103° East 441 507 39,000  Level Kansas City Center
01:07PM 38.9708 -97.8692 103° East 443 510 39,000  Level Kansas City Center
01:08PM 38.9397 -97.6953 103° East 445 512 39,000  Level Kansas City Center
01:09PM 38.9292 -97.5461 95° East 440 506 39,000  Level Kansas City Center
01:10PM 38.9411 -97.4019 84° East 435 501 39,000  Level Kansas City Center
01:11PM 38.9497 -97.2458 86° East 436 502 39,000  Level Kansas City Center
01:13PM 38.9692 -96.9014 86° East 439 505 39,000  Level Kansas City Center
01:14PM 38.9803 -96.7431 85° East 442 509 39,000  Level Kansas City Center
01:15PM 38.9894 -96.5872 86° East 439 505 39,000  Level Kansas City Center
01:16PM 38.9958 -96.4239 87° East 443 510 39,000  Level Kansas City Center
01:17PM 39.0047 -96.2492 86° East 439 505 39,000  Level Kansas City Center
01:18PM 39.0125 -96.0989 86° East 440 506 39,000  Level Kansas City Center
01:19PM 39.0194 -95.9483 87° East 441 507 39,000  Level Kansas City Center
01:20PM 39.0286 -95.7731 86° East 441 507 39,000  Level Kansas City Center
01:21PM 39.0358 -95.6231 86° East 441 507 39,000  Level Kansas City Center
01:22PM 39.0442 -95.4397 87° East 442 509 39,000  Level Kansas City Center
01:23PM 39.0500 -95.2825 87° East 442 509 39,000  Level Kansas City Center
01:24PM 39.0575 -95.1236 86° East 447 514 39,000  Level Kansas City Center
01:25PM 39.0636 -94.9747 87° East 443 510 39,000  Level Kansas City Center
01:26PM 39.0708 -94.7969 87° East 448 516 39,000  Level Kansas City Center
01:27PM 39.0764 -94.6439 87° East 450 518 39,000  Level Kansas City Center
01:28PM 39.0836 -94.4653 87° East 448 516 39,000  Level Kansas City Center
01:29PM 39.0894 -94.3119 87° East 449 517 39,000  Level Kansas City Center
01:30PM 39.0942 -94.1328 88° East 449 517 39,000  Level Kansas City Center
01:31PM 39.0706 -93.9817 101° East 448 516 39,000 -300 Level Kansas City Center
01:32PM 39.0425 -93.8058 102° East 448 516 38,500 -780 Descending Kansas City Center
01:34PM 39.0183 -93.6572 102° East 444 511 37,500 -1,020 Descending Kansas City Center
01:35PM 38.9972 -93.5058 100° East 444 511 36,500 -1,020 Descending Kansas City Center
01:36PM 38.9706 -93.3536 103° East 438 504 35,500 -1,020 Descending Kansas City Center
01:37PM 38.9458 -93.1981 102° East 441 507 34,500 -1,080 Descending Kansas City Center
01:38PM 38.9142 -93.0128 102° East 441 507 33,300 -1,080 Descending Kansas City Center
01:39PM 38.8872 -92.8589 103° East 441 507 32,300 -1,320 Descending Kansas City Center
01:40PM 38.8611 -92.7039 102° East 442 509 30,600 -1,800 Descending Kansas City Center
01:41PM 38.8342 -92.5508 103° East 440 506 28,600 -1,980 Descending Kansas City Center
01:42PM 38.8083 -92.4000 102° East 437 503 26,600 -1,920 Descending Kansas City Center
01:43PM 38.7833 -92.2561 103° East 420 483 24,700 -1,740 Descending Kansas City Center
01:44PM 38.7589 -92.1197 103° East 400 460 23,100 -1,560 Descending Kansas City Center
01:45PM 38.7339 -91.9811 103° East 397 457 21,600 -1,680 Descending Kansas City Center
01:46PM 38.7044 -91.8183 103° East 392 451 19,700 -1,800 Descending Kansas City Center
01:47PM 38.6908 -91.6903 98° East 376 433 18,000 -1,500 Descending Kansas City Center
01:48PM 38.6939 -91.5608 88° East 366 421 16,700 -1,440 Descending Kansas City Center
01:49PM 38.6942 -91.4292 90° East 366 421 15,100 -1,620 Descending Kansas City Center
01:50PM 38.6939 -91.3042 90° East 362 417 13,500 -1,560 Descending Kansas City Center
01:51PM 38.6944 -91.1839 90° East 352 405 12,000 -1,320 Descending Kansas City Center
01:52PM 38.7103 -91.0706 80° East 342 394 10,800 -1,380 Descending Kansas City Center
01:53PM 38.7528 -90.9772 60° Northeast 316 364 9,200 -1,860 Descending Kansas City Center
01:54PM 38.7889 -90.8697 67° East 294 338 7,000 -1,860 Descending Kansas City Center
01:55PM 38.8036 -90.7728 79° East 283 326 5,500 -1,320 Descending Kansas City Center
01:56PM 38.8183 -90.6794 79° East 274 315 4,300 -960 Descending Kansas City Center
01:57PM 38.8200 -90.5889 89° East 259 298 3,600 -720 Descending Kansas City Center